Time;durP1;ratioP1;P1;durP2;ratioP2;P2;SDS_P1;SDS_P2;PMS_P1;PMS_P2;Temp;Humidity;BMP_temperature;BMP_pressure;BME280_temperature;BME280_humidity;BME280_pressure;Samples;Min_cycle;Max_cycle;Signal;HPM_P1;HPM_P2
2022/01/27 00:05:41;;;;;;;41.67;22.57;;;5.40;99.90;;;;;;5036033;28;20684;-70
2022/01/27 00:13:17;;;;;;;40.63;22.30;;;5.50;99.90;;;;;;5035684;28;20224;-71
2022/01/27 00:15:46;;;;;;;38.97;23.00;;;5.40;99.90;;;;;;5035533;28;20252;-69
2022/01/27 00:18:17;;;;;;;40.73;23.37;;;5.40;99.90;;;;;;5035730;28;20178;-70
2022/01/27 00:20:47;;;;;;;43.10;23.33;;;5.30;99.90;;;;;;5035585;28;20227;-70
2022/01/27 00:23:13;;;;;;;37.90;22.23;;;5.20;99.90;;;;;;5035460;28;20182;-70
2022/01/27 00:25:39;;;;;;;37.40;22.40;;;5.20;99.90;;;;;;5035627;28;20234;-71
2022/01/27 00:28:07;;;;;;;40.03;21.97;;;5.30;99.90;;;;;;5035222;28;20781;-70
2022/01/27 00:30:35;;;;;;;36.53;21.63;;;5.40;99.90;;;;;;5035057;28;20170;-70
2022/01/27 00:33:00;;;;;;;39.67;22.53;;;5.30;99.90;;;;;;5035270;28;20189;-70
2022/01/27 00:35:26;;;;;;;38.47;21.60;;;5.30;99.90;;;;;;5035312;28;20174;-70
2022/01/27 00:38:18;;;;;;;38.60;22.13;;;5.40;99.90;;;;;;5035207;28;20265;-71
2022/01/27 00:40:44;;;;;;;35.20;20.90;;;5.50;99.90;;;;;;5035236;28;20365;-70
2022/01/27 00:43:10;;;;;;;38.27;22.47;;;5.50;99.90;;;;;;5034807;28;20181;-70
2022/01/27 00:45:36;;;;;;;34.77;20.83;;;5.50;99.90;;;;;;5034970;28;20174;-71
2022/01/27 00:48:04;;;;;;;37.40;22.17;;;5.60;99.90;;;;;;5035060;28;20229;-70
2022/01/27 00:50:32;;;;;;;40.13;22.03;;;5.60;99.90;;;;;;5035102;28;20249;-70
2022/01/27 00:53:00;;;;;;;40.80;21.80;;;5.60;99.90;;;;;;5016678;28;20212;-70
2022/01/27 00:55:28;;;;;;;36.00;21.13;;;5.60;99.90;;;;;;5034987;28;20196;-70
2022/01/27 00:58:05;;;;;;;36.17;21.27;;;5.70;99.90;;;;;;5033583;28;20201;-70
2022/01/27 01:00:36;;;;;;;34.23;20.37;;;5.60;99.90;;;;;;5034807;28;20220;-70
2022/01/27 01:03:07;;;;;;;34.57;20.90;;;5.70;99.90;;;;;;5034824;28;20177;-70
2022/01/27 01:08:12;;;;;;;35.03;20.87;;;5.80;99.90;;;;;;5034849;28;20201;-70
2022/01/27 01:16:08;;;;;;;37.40;20.83;;;5.70;99.90;;;;;;5034646;28;20245;-71
2022/01/27 01:18:59;;;;;;;33.83;20.13;;;5.70;99.90;;;;;;5034608;28;20170;-70
2022/01/27 01:21:51;;;;;;;34.80;20.43;;;5.70;99.90;;;;;;5034413;28;20205;-71
2022/01/27 01:32:34;;;;;;;34.43;19.83;;;5.50;99.90;;;;;;5034339;28;20201;-69
2022/01/27 01:35:00;;;;;;;38.40;20.60;;;5.50;99.90;;;;;;5034548;28;20170;-72
2022/01/27 01:37:26;;;;;;;35.90;19.53;;;5.40;99.90;;;;;;5034116;28;20240;-70
2022/01/27 01:39:52;;;;;;;34.43;19.67;;;5.50;99.90;;;;;;5032779;28;20167;-71
2022/01/27 01:42:17;;;;;;;35.80;19.73;;;5.60;99.90;;;;;;5033389;28;20196;-71
2022/01/27 01:44:45;;;;;;;40.83;21.60;;;5.60;99.90;;;;;;5033947;28;20665;-70
2022/01/27 01:47:11;;;;;;;37.13;20.80;;;5.70;99.90;;;;;;5034068;28;20268;-70
2022/01/27 01:49:36;;;;;;;39.23;20.20;;;5.60;99.90;;;;;;5033994;28;20162;-70
2022/01/27 01:52:07;;;;;;;36.23;20.83;;;5.60;99.90;;;;;;5033920;28;20174;-70
2022/01/27 01:54:33;;;;;;;34.33;20.00;;;5.60;99.90;;;;;;5033742;28;20173;-71
2022/01/27 01:56:59;;;;;;;33.47;19.77;;;5.60;99.90;;;;;;5033354;28;20281;-70
2022/01/27 01:59:25;;;;;;;39.47;20.20;;;5.60;99.90;;;;;;5033762;28;20653;-70
2022/01/27 02:01:51;;;;;;;34.47;20.33;;;5.60;99.90;;;;;;5033729;28;20189;-70
2022/01/27 02:04:17;;;;;;;37.97;20.83;;;5.70;99.90;;;;;;5033059;28;20165;-69
2022/01/27 02:06:55;;;;;;;37.17;21.47;;;5.70;99.90;;;;;;5033738;28;20201;-70
2022/01/27 02:20:08;;;;;;;36.23;21.10;;;5.60;99.90;;;;;;5033907;28;20224;-70
2022/01/27 02:22:34;;;;;;;37.83;20.80;;;5.60;99.90;;;;;;5033322;28;20630;-70
2022/01/27 02:25:00;;;;;;;33.97;19.60;;;5.60;99.90;;;;;;5033054;28;20218;-70
2022/01/27 02:27:26;;;;;;;35.57;19.87;;;5.70;99.90;;;;;;5032924;28;20205;-70
2022/01/27 02:29:51;;;;;;;35.73;19.47;;;5.70;99.90;;;;;;5033503;28;20525;-70
2022/01/27 02:32:19;;;;;;;35.37;20.10;;;5.70;99.90;;;;;;5033349;28;20181;-70
2022/01/27 02:34:45;;;;;;;36.77;19.97;;;5.60;99.90;;;;;;5033368;28;20169;-70
2022/01/27 02:37:11;;;;;;;36.47;20.43;;;5.70;99.90;;;;;;5033171;28;20177;-69
2022/01/27 02:39:37;;;;;;;36.77;20.10;;;5.60;99.90;;;;;;5032858;28;20163;-70
2022/01/27 02:42:33;;;;;;;32.70;19.33;;;5.70;99.90;;;;;;5033017;28;20197;-70
2022/01/27 02:45:22;;;;;;;40.17;20.83;;;5.70;99.90;;;;;;4952998;29;20180;-69
2022/01/27 02:47:47;;;;;;;39.20;20.17;;;5.80;99.90;;;;;;4952940;29;20216;-70
2022/01/27 02:50:13;;;;;;;35.83;20.40;;;5.70;99.90;;;;;;4952919;29;20593;-70
2022/01/27 02:52:38;;;;;;;40.90;21.33;;;5.60;99.90;;;;;;4952935;29;20185;-69
2022/01/27 02:55:05;;;;;;;37.47;19.73;;;5.70;99.90;;;;;;4952517;29;20188;-69
2022/01/27 02:57:31;;;;;;;34.77;20.70;;;5.70;99.90;;;;;;4952684;29;20180;-70
2022/01/27 02:59:56;;;;;;;32.83;19.70;;;5.70;99.90;;;;;;4952936;29;20541;-70
2022/01/27 03:02:23;;;;;;;38.93;20.50;;;5.70;99.90;;;;;;4952965;29;20185;-70
2022/01/27 03:04:48;;;;;;;35.93;19.53;;;5.70;99.90;;;;;;4952956;29;20181;-70
2022/01/27 03:07:14;;;;;;;38.53;21.10;;;5.70;99.90;;;;;;4952619;29;20233;-70
2022/01/27 03:09:40;;;;;;;40.50;22.10;;;5.70;99.90;;;;;;4952460;29;20177;-70
2022/01/27 03:12:10;;;;;;;35.23;19.70;;;5.70;99.90;;;;;;4952603;29;20360;-69
2022/01/27 03:14:36;;;;;;;39.60;20.90;;;5.70;99.90;;;;;;4952860;28;20322;-70
2022/01/27 03:17:04;;;;;;;41.60;20.97;;;5.70;99.90;;;;;;4956574;29;20178;-70
2022/01/27 03:19:30;;;;;;;36.20;20.80;;;5.70;99.90;;;;;;4956537;29;20172;-70
2022/01/27 03:21:57;;;;;;;40.37;21.33;;;5.70;99.90;;;;;;5016563;28;20399;-70
2022/01/27 03:24:24;;;;;;;40.63;20.83;;;5.60;99.90;;;;;;5035987;28;20170;-70
2022/01/27 03:26:51;;;;;;;43.77;22.47;;;5.60;99.90;;;;;;5036854;28;20201;-69
2022/01/27 03:29:17;;;;;;;39.37;20.93;;;5.70;99.90;;;;;;5036574;28;20227;-70
2022/01/27 03:31:44;;;;;;;38.67;20.67;;;5.70;99.90;;;;;;5036683;28;20197;-69
2022/01/27 03:34:09;;;;;;;39.43;21.67;;;5.70;99.90;;;;;;5036414;28;20171;-69
2022/01/27 03:36:35;;;;;;;41.90;22.50;;;5.70;99.90;;;;;;5035085;28;20188;-70
2022/01/27 03:39:01;;;;;;;42.33;22.10;;;5.70;99.90;;;;;;5036077;28;20170;-69
2022/01/27 03:41:31;;;;;;;39.83;21.43;;;5.70;99.90;;;;;;5036018;28;20182;-70
2022/01/27 03:43:58;;;;;;;42.53;21.97;;;5.70;99.90;;;;;;5036254;28;20174;-69
2022/01/27 03:46:24;;;;;;;42.60;22.27;;;5.70;99.90;;;;;;5036388;28;20523;-69
2022/01/27 03:48:50;;;;;;;37.57;21.47;;;5.70;99.90;;;;;;5036128;28;20244;-69
2022/01/27 03:51:15;;;;;;;38.67;21.57;;;5.70;99.90;;;;;;5035983;28;20173;-69
2022/01/27 03:53:41;;;;;;;43.80;22.17;;;5.60;99.90;;;;;;5035677;28;20629;-69
2022/01/27 03:56:07;;;;;;;47.27;22.73;;;5.60;99.90;;;;;;5036250;28;20648;-70
2022/01/27 03:58:33;;;;;;;44.43;22.80;;;5.60;99.90;;;;;;5036174;28;20595;-69
2022/01/27 04:01:02;;;;;;;39.43;22.50;;;5.50;99.90;;;;;;5035976;28;20185;-70
2022/01/27 04:03:30;;;;;;;43.30;22.00;;;5.60;99.90;;;;;;5035954;28;20177;-69
2022/01/27 04:06:03;;;;;;;45.40;22.80;;;5.70;99.90;;;;;;5035835;28;20626;-70
2022/01/27 04:08:28;;;;;;;49.67;23.40;;;5.60;99.90;;;;;;5035420;28;20292;-70
2022/01/27 04:10:54;;;;;;;41.30;23.83;;;5.50;99.90;;;;;;5035805;28;20224;-69
2022/01/27 04:13:20;;;;;;;47.00;24.50;;;5.40;99.90;;;;;;5035829;28;20177;-70
2022/01/27 04:15:46;;;;;;;47.73;24.73;;;5.40;99.90;;;;;;5035826;28;20521;-69
2022/01/27 04:18:12;;;;;;;50.23;24.83;;;5.30;99.90;;;;;;5035286;28;20185;-70
2022/01/27 04:20:41;;;;;;;47.07;24.43;;;5.30;99.90;;;;;;5034990;28;20170;-69
2022/01/27 04:23:09;;;;;;;50.50;25.27;;;5.20;99.90;;;;;;5035011;28;20652;-68
2022/01/27 04:25:37;;;;;;;50.47;25.37;;;5.20;99.90;;;;;;5035654;28;20317;-69
2022/01/27 04:28:07;;;;;;;44.87;24.53;;;5.10;99.90;;;;;;5034472;28;20309;-70
2022/01/27 04:30:32;;;;;;;53.47;26.10;;;5.20;99.90;;;;;;5035281;28;20166;-69
2022/01/27 04:33:01;;;;;;;50.70;25.47;;;5.20;99.90;;;;;;5033884;28;20181;-71
2022/01/27 04:35:30;;;;;;;51.37;25.47;;;5.10;99.90;;;;;;5034707;28;20174;-70
2022/01/27 04:40:29;;;;;;;49.50;24.90;;;5.00;99.90;;;;;;5035320;28;20162;-69
2022/01/27 04:45:28;;;;;;;54.50;27.57;;;5.00;99.90;;;;;;5035418;28;20637;-70
2022/01/27 04:48:03;;;;;;;53.37;27.60;;;5.00;99.90;;;;;;5034509;28;20738;-69
2022/01/27 04:50:29;;;;;;;53.77;25.33;;;5.00;99.90;;;;;;5034671;28;20205;-69
2022/01/27 04:52:56;;;;;;;53.80;25.47;;;5.00;99.90;;;;;;5034896;28;20256;-71
2022/01/27 04:55:23;;;;;;;47.83;23.10;;;5.00;99.90;;;;;;5033852;28;20510;-70
2022/01/27 04:57:56;;;;;;;53.60;25.73;;;5.00;99.90;;;;;;5035043;28;20220;-70
2022/01/27 05:00:22;;;;;;;52.80;27.33;;;5.00;99.90;;;;;;5034539;28;20227;-69
2022/01/27 05:02:55;;;;;;;54.37;27.43;;;4.90;99.90;;;;;;5034351;28;20264;-69
2022/01/27 05:05:21;;;;;;;59.83;28.40;;;4.90;99.90;;;;;;5034349;28;20178;-70
2022/01/27 05:07:55;;;;;;;58.00;27.47;;;4.80;99.90;;;;;;5034734;28;20217;-70
2022/01/27 05:10:24;;;;;;;63.20;28.50;;;4.90;99.90;;;;;;5034439;28;20178;-70
2022/01/27 05:12:52;;;;;;;57.30;27.60;;;4.80;99.90;;;;;;5034070;28;20268;-70
2022/01/27 05:15:18;;;;;;;61.03;29.20;;;4.80;99.90;;;;;;5034690;28;20169;-70
2022/01/27 05:17:44;;;;;;;59.93;28.10;;;4.90;99.90;;;;;;5034265;28;20170;-69
2022/01/27 05:20:10;;;;;;;59.00;28.83;;;4.90;99.90;;;;;;5034232;28;20170;-69
2022/01/27 05:22:36;;;;;;;55.10;26.87;;;4.90;99.90;;;;;;5034186;28;20162;-70
2022/01/27 05:25:02;;;;;;;59.23;29.20;;;4.90;99.90;;;;;;5033832;28;20313;-70
2022/01/27 05:27:28;;;;;;;55.50;28.33;;;4.90;99.90;;;;;;5033547;28;20206;-69
2022/01/27 05:29:54;;;;;;;55.90;27.90;;;5.00;99.90;;;;;;5033974;28;20587;-70
2022/01/27 05:32:20;;;;;;;66.50;28.70;;;4.90;99.90;;;;;;5033872;28;20220;-69
2022/01/27 05:34:46;;;;;;;57.53;28.93;;;4.90;99.90;;;;;;5033812;28;20629;-70
2022/01/27 05:37:11;;;;;;;58.47;28.37;;;4.90;99.90;;;;;;5033510;28;20170;-69
2022/01/27 05:39:37;;;;;;;58.57;29.30;;;4.90;99.90;;;;;;5033431;28;20641;-69
2022/01/27 05:42:03;;;;;;;59.57;27.73;;;4.90;99.90;;;;;;5033503;28;20239;-69
2022/01/27 05:44:31;;;;;;;58.63;29.00;;;4.90;99.90;;;;;;5033792;28;20694;-69
2022/01/27 05:46:57;;;;;;;58.50;28.80;;;4.90;99.90;;;;;;5033318;28;20201;-69
2022/01/27 05:49:23;;;;;;;55.23;26.83;;;4.90;99.90;;;;;;5032704;28;20216;-69
2022/01/27 05:51:48;;;;;;;56.37;28.43;;;4.90;99.90;;;;;;5033363;28;20635;-69
2022/01/27 05:54:14;;;;;;;56.37;28.63;;;4.90;99.90;;;;;;5032705;28;20177;-70
2022/01/27 05:56:40;;;;;;;59.50;28.40;;;4.90;99.90;;;;;;5033370;28;20209;-70
2022/01/27 05:59:05;;;;;;;54.53;27.10;;;4.90;99.90;;;;;;5033522;28;20170;-68
2022/01/27 06:01:31;;;;;;;63.90;28.70;;;4.90;99.90;;;;;;5033022;28;20181;-69
2022/01/27 06:03:56;;;;;;;61.30;29.23;;;5.00;99.90;;;;;;5032862;28;20170;-70
2022/01/27 06:06:22;;;;;;;61.03;30.63;;;4.90;99.90;;;;;;5032954;28;20475;-70
2022/01/27 06:08:48;;;;;;;58.30;28.70;;;4.90;99.90;;;;;;5033076;28;20178;-69
2022/01/27 06:11:13;;;;;;;60.10;30.57;;;4.90;99.90;;;;;;5032628;28;20170;-70
2022/01/27 06:13:39;;;;;;;65.50;30.80;;;4.90;99.90;;;;;;5033227;28;20174;-69
2022/01/27 06:16:09;;;;;;;61.53;29.63;;;4.90;99.90;;;;;;5032811;28;20166;-70
2022/01/27 06:18:39;;;;;;;60.20;29.37;;;5.00;99.90;;;;;;5032688;28;20170;-70
2022/01/27 06:21:06;;;;;;;65.50;29.33;;;5.00;99.90;;;;;;5032677;28;20200;-71
2022/01/27 06:23:32;;;;;;;60.10;30.40;;;5.10;99.90;;;;;;5032782;28;20177;-71
2022/01/27 06:26:06;;;;;;;63.87;30.43;;;5.10;99.90;;;;;;5033043;28;20302;-73
2022/01/27 06:28:32;;;;;;;61.60;30.30;;;5.10;99.90;;;;;;5032325;28;20212;-71
2022/01/27 06:30:57;;;;;;;60.93;29.60;;;5.10;99.90;;;;;;5032049;28;20657;-71
2022/01/27 06:33:23;;;;;;;63.63;29.30;;;5.20;99.90;;;;;;5014446;28;20626;-71
2022/01/27 06:35:49;;;;;;;56.37;29.07;;;5.30;99.90;;;;;;5033020;28;20166;-69
2022/01/27 06:38:17;;;;;;;58.53;28.13;;;5.40;99.90;;;;;;5032331;28;20178;-70
2022/01/27 06:40:43;;;;;;;62.47;30.17;;;5.40;99.90;;;;;;5014750;28;20247;-70
2022/01/27 06:43:11;;;;;;;56.07;27.17;;;5.40;99.90;;;;;;5032412;28;20169;-71
2022/01/27 06:45:37;;;;;;;56.80;27.87;;;5.50;99.90;;;;;;5032037;28;20185;-70
2022/01/27 06:48:03;;;;;;;58.63;27.87;;;5.60;99.90;;;;;;5014300;28;20221;-70
2022/01/27 06:50:31;;;;;;;57.03;28.57;;;5.60;99.90;;;;;;5031725;28;20170;-71
2022/01/27 06:52:57;;;;;;;53.93;27.50;;;5.60;99.90;;;;;;5032384;28;20545;-70
2022/01/27 06:55:22;;;;;;;55.03;27.30;;;5.70;99.90;;;;;;5032059;28;20228;-70
2022/01/27 06:57:49;;;;;;;53.13;28.53;;;5.70;99.90;;;;;;5031976;28;20185;-70
2022/01/27 07:00:16;;;;;;;53.13;27.63;;;5.70;99.90;;;;;;5031442;28;20216;-70
2022/01/27 07:02:43;;;;;;;56.07;27.60;;;5.80;99.90;;;;;;5031680;28;20170;-71
2022/01/27 07:05:10;;;;;;;50.60;26.73;;;5.70;99.90;;;;;;5032167;28;20239;-71
2022/01/27 07:07:36;;;;;;;52.30;26.00;;;5.80;99.90;;;;;;5031123;28;20669;-71
2022/01/27 07:10:02;;;;;;;57.20;28.40;;;5.70;99.90;;;;;;5031118;28;20232;-70
2022/01/27 07:12:27;;;;;;;57.40;26.43;;;5.70;99.90;;;;;;5031680;28;20173;-71
2022/01/27 07:14:55;;;;;;;54.10;26.20;;;5.80;99.90;;;;;;5031588;28;20170;-71
2022/01/27 07:17:21;;;;;;;52.50;26.80;;;5.80;99.90;;;;;;5030649;28;20233;-70
2022/01/27 07:19:47;;;;;;;51.57;26.27;;;5.80;99.90;;;;;;5031936;28;20640;-71
2022/01/27 07:22:12;;;;;;;59.67;28.30;;;5.80;99.90;;;;;;5031952;28;20225;-70
2022/01/27 07:24:38;;;;;;;58.03;27.77;;;5.90;99.90;;;;;;5032109;28;20626;-71
2022/01/27 07:27:04;;;;;;;54.97;27.30;;;5.90;99.90;;;;;;5031657;28;20248;-71
2022/01/27 07:29:30;;;;;;;57.20;27.47;;;5.90;99.90;;;;;;5031506;28;20173;-70
2022/01/27 07:31:56;;;;;;;52.47;26.83;;;6.00;99.90;;;;;;5031135;28;20181;-70
2022/01/27 07:34:22;;;;;;;53.07;27.23;;;6.00;99.90;;;;;;5031347;28;20614;-70
2022/01/27 07:36:48;;;;;;;55.97;27.47;;;6.00;99.90;;;;;;5031882;28;20541;-70
2022/01/27 07:39:15;;;;;;;50.40;27.23;;;6.00;99.90;;;;;;5031846;28;20182;-70
2022/01/27 07:41:43;;;;;;;54.90;26.47;;;6.10;99.90;;;;;;5031578;28;20225;-71
2022/01/27 07:44:08;;;;;;;51.80;26.00;;;6.10;99.90;;;;;;5031091;28;20178;-70
2022/01/27 07:46:34;;;;;;;56.10;28.73;;;6.20;99.90;;;;;;5031760;28;20537;-71
2022/01/27 07:48:59;;;;;;;52.27;26.77;;;6.20;99.90;;;;;;5030966;28;20268;-70
2022/01/27 07:51:26;;;;;;;51.43;27.00;;;6.20;99.90;;;;;;5030393;28;20196;-70
2022/01/27 07:53:54;;;;;;;49.73;24.77;;;6.30;99.90;;;;;;5032005;28;20260;-71
2022/01/27 07:56:20;;;;;;;55.87;27.57;;;6.40;99.90;;;;;;5031457;28;20249;-71
2022/01/27 07:58:49;;;;;;;55.50;26.33;;;6.40;99.90;;;;;;5030666;28;20373;-71
2022/01/27 08:01:14;;;;;;;49.90;25.50;;;6.40;99.90;;;;;;5031685;28;20240;-70
2022/01/27 08:03:40;;;;;;;49.63;26.83;;;6.50;99.90;;;;;;5033099;28;20181;-71
2022/01/27 08:06:06;;;;;;;55.43;26.80;;;6.40;99.90;;;;;;5035019;28;20177;-71
2022/01/27 08:08:32;;;;;;;48.70;25.47;;;6.50;99.90;;;;;;5035096;28;20252;-71
2022/01/27 08:10:58;;;;;;;46.93;25.87;;;6.50;99.90;;;;;;5034319;28;20201;-70
2022/01/27 08:13:28;;;;;;;48.70;25.77;;;6.50;99.90;;;;;;5034578;28;20239;-71
2022/01/27 08:15:54;;;;;;;51.93;26.13;;;6.70;99.90;;;;;;5034509;28;20170;-71
2022/01/27 08:18:20;;;;;;;50.70;25.77;;;6.70;99.90;;;;;;5034462;28;20489;-71
2022/01/27 08:20:47;;;;;;;55.80;27.57;;;6.70;99.90;;;;;;5034733;28;20201;-71
2022/01/27 08:23:16;;;;;;;51.43;28.43;;;6.70;99.90;;;;;;5034412;28;20180;-72
2022/01/27 08:25:42;;;;;;;53.60;26.83;;;6.80;99.90;;;;;;5039107;28;20231;-70
2022/01/27 08:28:20;;;;;;;49.57;25.97;;;6.70;99.90;;;;;;5042400;28;20228;-72
2022/01/27 08:30:49;;;;;;;47.13;25.13;;;6.80;99.90;;;;;;5048044;28;20205;-71
2022/01/27 08:33:18;;;;;;;50.93;27.47;;;6.80;99.90;;;;;;5001510;28;20169;-71
2022/01/27 08:35:44;;;;;;;49.20;25.57;;;6.80;99.90;;;;;;5041782;28;20705;-72
2022/01/27 08:38:09;;;;;;;48.37;25.70;;;6.80;99.90;;;;;;5034713;28;20180;-71
2022/01/27 08:40:35;;;;;;;50.23;25.53;;;6.90;99.90;;;;;;5051482;28;20170;-71
2022/01/27 08:43:02;;;;;;;47.10;25.83;;;7.00;99.90;;;;;;5047908;28;20694;-72
2022/01/27 08:45:28;;;;;;;49.10;25.63;;;7.00;99.90;;;;;;5037466;28;20187;-71
2022/01/27 08:47:57;;;;;;;45.63;25.90;;;7.10;99.90;;;;;;5039255;28;20263;-71
2022/01/27 08:50:24;;;;;;;49.43;26.77;;;6.90;99.90;;;;;;5050246;28;20177;-71
2022/01/27 08:52:50;;;;;;;48.30;25.47;;;7.00;99.90;;;;;;5037420;28;20224;-71
2022/01/27 08:55:16;;;;;;;50.63;25.03;;;7.10;99.90;;;;;;5046299;28;20268;-71
2022/01/27 08:57:42;;;;;;;56.57;27.20;;;7.10;99.90;;;;;;5033288;28;20264;-70
2022/01/27 09:00:10;;;;;;;48.40;23.87;;;7.10;99.90;;;;;;5047562;28;20511;-71
2022/01/27 09:02:36;;;;;;;49.23;25.73;;;7.20;99.90;;;;;;5035875;28;20660;-72
2022/01/27 09:05:01;;;;;;;62.33;26.80;;;7.20;99.90;;;;;;5039476;28;20165;-71
2022/01/27 09:07:27;;;;;;;47.57;24.27;;;7.30;99.90;;;;;;5043549;28;20282;-71
2022/01/27 09:09:53;;;;;;;47.93;24.10;;;7.20;99.90;;;;;;5047142;28;20585;-71
2022/01/27 09:12:18;;;;;;;48.23;24.43;;;7.10;99.90;;;;;;5047237;28;20696;-72
2022/01/27 09:14:44;;;;;;;47.83;24.53;;;7.20;99.90;;;;;;5033063;28;20180;-72
2022/01/27 09:17:12;;;;;;;43.60;23.17;;;7.30;99.90;;;;;;5034145;28;20174;-71
2022/01/27 09:19:40;;;;;;;44.83;24.00;;;7.40;99.90;;;;;;5032269;28;20189;-74
2022/01/27 09:22:13;;;;;;;45.20;24.73;;;7.40;99.90;;;;;;5040341;28;20209;-71
2022/01/27 09:24:59;;;;;;;42.43;24.77;;;7.30;99.90;;;;;;5043769;28;20248;-71
2022/01/27 09:27:26;;;;;;;47.77;26.13;;;7.40;99.90;;;;;;5060970;28;20201;-71
2022/01/27 09:29:53;;;;;;;46.70;24.33;;;7.50;99.90;;;;;;5058475;28;20197;-70
2022/01/27 09:32:19;;;;;;;47.47;25.37;;;7.50;99.90;;;;;;5068239;28;20184;-70
2022/01/27 09:34:46;;;;;;;44.77;24.23;;;7.60;99.90;;;;;;5055864;28;20187;-72
2022/01/27 09:37:13;;;;;;;42.10;24.60;;;7.70;99.90;;;;;;5063722;28;20228;-72
2022/01/27 09:39:39;;;;;;;43.83;25.03;;;7.80;99.90;;;;;;5063875;28;20184;-72
2022/01/27 09:42:09;;;;;;;48.70;25.30;;;7.80;99.90;;;;;;5070024;28;20211;-72
2022/01/27 09:44:37;;;;;;;45.40;25.67;;;7.80;99.90;;;;;;5060755;28;20374;-72
2022/01/27 09:47:11;;;;;;;47.10;24.50;;;7.80;99.90;;;;;;5065727;28;20204;-72
2022/01/27 09:49:41;;;;;;;48.73;25.00;;;7.70;99.90;;;;;;5061335;28;20172;-71
2022/01/27 09:52:10;;;;;;;45.83;25.33;;;7.70;99.90;;;;;;5066401;28;20279;-71
2022/01/27 09:54:36;;;;;;;43.63;25.63;;;7.70;99.90;;;;;;5062800;28;20173;-71
2022/01/27 09:57:03;;;;;;;49.07;25.33;;;7.80;99.90;;;;;;5054413;28;20169;-71
2022/01/27 09:59:29;;;;;;;44.90;25.00;;;7.80;99.90;;;;;;5062021;28;20172;-71
2022/01/27 10:02:02;;;;;;;50.30;26.13;;;7.90;99.90;;;;;;5066126;28;20241;-71
2022/01/27 10:04:42;;;;;;;51.87;25.47;;;7.80;99.90;;;;;;5055346;28;20193;-72
2022/01/27 10:07:08;;;;;;;48.73;25.23;;;7.80;99.90;;;;;;5054895;28;20593;-71
2022/01/27 10:09:34;;;;;;;52.77;26.87;;;7.90;99.90;;;;;;5062124;28;20215;-71
2022/01/27 10:12:04;;;;;;;47.03;26.80;;;8.00;99.90;;;;;;5055414;28;20176;-71
2022/01/27 10:14:38;;;;;;;47.97;25.60;;;8.00;99.90;;;;;;5068459;28;20188;-70
2022/01/27 10:17:09;;;;;;;49.43;25.47;;;7.80;99.90;;;;;;5058082;28;20268;-72
2022/01/27 10:19:36;;;;;;;49.77;26.20;;;7.70;99.90;;;;;;5054235;28;20286;-70
2022/01/27 10:22:15;;;;;;;52.47;25.83;;;7.80;99.90;;;;;;5060766;28;20165;-71
2022/01/27 10:24:41;;;;;;;49.20;25.97;;;7.80;99.90;;;;;;5051034;28;20225;-71
2022/01/27 10:27:46;;;;;;;53.13;26.97;;;7.70;99.90;;;;;;5045615;28;20262;-72
2022/01/27 10:32:59;;;;;;;47.37;25.10;;;7.70;99.90;;;;;;5033199;28;20182;-72
2022/01/27 10:35:28;;;;;;;46.70;23.93;;;7.60;99.90;;;;;;5035355;28;20181;-70
2022/01/27 10:38:04;;;;;;;47.97;25.20;;;7.70;99.90;;;;;;5030653;28;20197;-72
2022/01/27 10:40:39;;;;;;;48.40;24.30;;;7.70;99.90;;;;;;5048326;28;20165;-71
2022/01/27 10:43:15;;;;;;;50.77;26.70;;;7.70;99.90;;;;;;5037830;28;20184;-73
2022/01/27 10:46:07;;;;;;;47.23;25.67;;;7.80;99.90;;;;;;5040951;28;20180;-70
2022/01/27 10:48:34;;;;;;;48.23;27.80;;;8.00;99.90;;;;;;5048273;28;20967;-70
2022/01/27 10:51:13;;;;;;;53.90;33.20;;;8.00;99.90;;;;;;5036835;28;20185;-71
2022/01/27 10:53:52;;;;;;;46.70;25.83;;;8.00;99.90;;;;;;5040657;28;20177;-71
2022/01/27 10:56:21;;;;;;;84.43;64.53;;;8.00;99.90;;;;;;5047726;28;20173;-72
2022/01/27 10:58:47;;;;;;;57.17;36.80;;;8.00;99.90;;;;;;5052182;28;20173;-72
2022/01/27 11:01:22;;;;;;;44.47;27.07;;;8.20;99.90;;;;;;5034456;28;20558;-72
2022/01/27 11:03:52;;;;;;;64.30;44.47;;;8.10;99.90;;;;;;5050670;28;20248;-72
2022/01/27 11:06:20;;;;;;;70.83;46.00;;;8.10;99.90;;;;;;5051813;28;20659;-72
2022/01/27 11:08:47;;;;;;;79.10;54.00;;;8.20;99.90;;;;;;5051283;28;20220;-71
2022/01/27 11:11:13;;;;;;;46.50;25.57;;;8.30;99.90;;;;;;5051368;28;20174;-70
2022/01/27 11:13:43;;;;;;;46.30;25.33;;;8.40;99.90;;;;;;5051652;28;20173;-70
2022/01/27 11:16:12;;;;;;;49.20;29.40;;;8.50;99.90;;;;;;5052028;28;20223;-72
2022/01/27 11:18:40;;;;;;;40.93;23.93;;;8.50;99.90;;;;;;5034197;28;20181;-72
2022/01/27 11:21:12;;;;;;;40.97;24.23;;;8.50;99.90;;;;;;5051707;28;20181;-72
2022/01/27 11:26:13;;;;;;;44.03;25.00;;;8.50;99.90;;;;;;5051248;28;20227;-71
2022/01/27 11:28:46;;;;;;;40.07;23.13;;;8.50;99.90;;;;;;5051741;28;20253;-72
2022/01/27 11:31:14;;;;;;;46.40;29.40;;;8.50;99.90;;;;;;5052003;28;20173;-71
2022/01/27 11:33:45;;;;;;;39.50;23.23;;;8.60;99.90;;;;;;5032161;28;20184;-72
2022/01/27 11:36:23;;;;;;;76.00;57.53;;;8.50;99.90;;;;;;5045394;28;20174;-71
2022/01/27 11:38:49;;;;;;;52.43;34.27;;;8.50;99.90;;;;;;5035827;28;20176;-72
2022/01/27 11:41:36;;;;;;;52.60;31.83;;;8.40;99.90;;;;;;5038799;28;20719;-71
2022/01/27 11:44:22;;;;;;;44.77;24.70;;;8.50;99.90;;;;;;5040417;28;20701;-72
2022/01/27 11:47:10;;;;;;;44.80;27.47;;;8.40;99.90;;;;;;5046280;28;20201;-72
2022/01/27 11:50:22;;;;;;;46.13;26.60;;;8.40;99.90;;;;;;5037947;28;20174;-72
2022/01/27 11:52:52;;;;;;;36.70;21.97;;;8.50;99.90;;;;;;5048476;28;20173;-73
2022/01/27 11:55:23;;;;;;;45.13;25.30;;;8.40;99.90;;;;;;5038240;28;20182;-72
2022/01/27 11:57:50;;;;;;;44.43;23.33;;;8.40;99.90;;;;;;5038088;28;20252;-72
2022/01/27 12:00:22;;;;;;;39.90;22.53;;;8.40;99.90;;;;;;5047011;28;20253;-72
2022/01/27 12:03:02;;;;;;;40.53;23.37;;;8.50;99.90;;;;;;5034312;28;20186;-72
2022/01/27 12:05:42;;;;;;;44.50;23.50;;;8.40;99.90;;;;;;5035774;28;20173;-72
2022/01/27 12:08:17;;;;;;;45.23;24.13;;;8.40;99.90;;;;;;5030603;28;20299;-73
2022/01/27 12:11:01;;;;;;;32.27;21.33;;;8.50;99.90;;;;;;5034281;28;20205;-73
2022/01/27 12:19:03;;;;;;;99.77;75.60;;;8.60;99.90;;;;;;5045881;28;20204;-72
2022/01/27 12:21:32;;;;;;;37.27;22.90;;;8.60;99.90;;;;;;5039791;28;20187;-71
2022/01/27 12:24:23;;;;;;;29.57;19.83;;;8.60;99.90;;;;;;5038101;28;20219;-72
2022/01/27 12:26:52;;;;;;;35.17;20.90;;;8.70;99.90;;;;;;5041981;28;20217;-72
2022/01/27 12:29:24;;;;;;;36.73;24.40;;;8.70;99.90;;;;;;5035148;28;20235;-71
2022/01/27 12:31:51;;;;;;;32.40;20.57;;;8.80;99.90;;;;;;5037733;28;20173;-72
2022/01/27 12:34:17;;;;;;;38.43;21.80;;;8.80;99.90;;;;;;5043353;28;20196;-72
2022/01/27 12:37:02;;;;;;;34.23;20.53;;;8.80;99.90;;;;;;5035269;28;20189;-72
2022/01/27 12:39:37;;;;;;;33.37;20.43;;;8.80;99.90;;;;;;5033737;28;20194;-72
2022/01/27 12:42:06;;;;;;;34.77;20.67;;;8.60;99.90;;;;;;5033408;28;20284;-72
2022/01/27 12:44:33;;;;;;;55.17;41.33;;;8.60;99.90;;;;;;5043624;28;20192;-72
2022/01/27 12:47:08;;;;;;;28.90;20.03;;;8.70;99.90;;;;;;5039901;28;20216;-72
2022/01/27 12:49:41;;;;;;;33.80;24.47;;;8.70;99.90;;;;;;5049839;28;20276;-71
2022/01/27 12:52:15;;;;;;;31.20;19.63;;;8.70;99.90;;;;;;5039632;28;20169;-73
2022/01/27 12:54:41;;;;;;;31.73;19.07;;;8.70;99.90;;;;;;5043205;28;20170;-72
2022/01/27 12:57:09;;;;;;;30.30;19.23;;;8.90;99.90;;;;;;5033881;28;20630;-72
2022/01/27 12:59:38;;;;;;;28.30;19.13;;;9.00;99.90;;;;;;5049522;28;20184;-73
2022/01/27 13:02:06;;;;;;;26.03;16.87;;;8.90;99.90;;;;;;5039254;28;20177;-71
2022/01/27 13:04:33;;;;;;;29.47;17.70;;;8.90;99.90;;;;;;5040121;28;20256;-73
2022/01/27 13:06:59;;;;;;;31.43;17.97;;;8.90;99.90;;;;;;5048195;28;20262;-73
2022/01/27 13:09:27;;;;;;;27.90;16.83;;;8.80;99.90;;;;;;5034013;28;20190;-73
2022/01/27 13:11:54;;;;;;;31.43;17.77;;;8.90;99.90;;;;;;5033797;28;20166;-72
2022/01/27 13:14:20;;;;;;;23.80;16.17;;;8.90;99.90;;;;;;5034192;28;20265;-72
2022/01/27 13:16:56;;;;;;;36.23;27.63;;;9.00;99.90;;;;;;5034593;28;20212;-72
2022/01/27 13:19:45;;;;;;;85.23;66.07;;;9.00;99.90;;;;;;5015667;28;20531;-72
2022/01/27 13:22:16;;;;;;;47.10;36.37;;;9.00;99.90;;;;;;5034747;28;20177;-72
2022/01/27 13:24:51;;;;;;;88.90;70.43;;;9.10;99.90;;;;;;5033783;28;20186;-70
2022/01/27 13:27:16;;;;;;;47.37;34.67;;;9.00;99.90;;;;;;5040652;28;20231;-72
2022/01/27 13:29:45;;;;;;;30.20;21.73;;;9.10;99.90;;;;;;5048922;28;20173;-72
2022/01/27 13:32:17;;;;;;;34.53;26.43;;;9.00;99.90;;;;;;5039840;28;20255;-72
2022/01/27 13:34:47;;;;;;;28.17;18.10;;;9.00;99.90;;;;;;5042397;28;20181;-70
2022/01/27 13:37:26;;;;;;;26.03;17.60;;;9.00;99.90;;;;;;5046993;28;20226;-72